Alvin, Wisconsin
Current Conditions -  °F | °C
As of 10:55 PM on Friday 19 Dec 2014 (Local Time) from KEGV Reporting Station
Overcast Overcast  
Wind Chill: 13°   Ceiling: 600
Heat Index: 13°   Visibility: 10mi
Dew Point: 11°   Wind: 0mph
Humidity: 92%   Direction: NA
Pressure: 30.18"   Gusts: NA
Location:  45.9186°N, 88.7601°W
Report Text: KEGV 200455Z AUTO 00000KT 10SM OVC006 M11/M12 A3018 RMK AO2 T11081118
Loading
Personal Weather Stations






























Interactive Weather Map New forecast layout! Learn more

10-Day Weather Forecast

Advertisements
Track Severe Weather on mobile